createdAt,value
2018-08-17T00:00:05.247Z,8.23
2018-08-17T00:02:33.262Z,8.17
2018-08-17T00:05:01.391Z,7.43
2018-08-17T00:07:29.423Z,8.93
2018-08-17T00:09:57.546Z,9.93
2018-08-17T00:12:25.570Z,9.63
2018-08-17T00:14:53.605Z,10.83
2018-08-17T00:17:21.684Z,11.17
2018-08-17T00:19:49.831Z,11.87
2018-08-17T00:22:17.912Z,8.10
2018-08-17T00:24:45.983Z,7.07
2018-08-17T00:27:14.052Z,7.40
2018-08-17T00:29:42.092Z,9.10
2018-08-17T00:32:10.142Z,7.97
2018-08-17T00:34:38.168Z,8.13
2018-08-17T00:37:06.248Z,8.13
2018-08-17T00:39:34.440Z,7.00
2018-08-17T00:42:02.487Z,7.17
2018-08-17T00:44:30.511Z,10.77
2018-08-17T00:46:58.546Z,11.20
2018-08-17T00:49:26.614Z,10.17
2018-08-17T00:51:54.630Z,11.43
2018-08-17T00:54:22.686Z,8.53
2018-08-17T00:56:50.735Z,6.60
2018-08-17T00:59:18.786Z,9.53
2018-08-17T01:01:46.819Z,10.40
2018-08-17T01:04:14.843Z,10.60
2018-08-17T01:06:42.875Z,8.73
2018-08-17T01:09:10.951Z,10.67
2018-08-17T01:11:38.981Z,12.40
2018-08-17T01:14:07.026Z,11.03
2018-08-17T01:16:35.049Z,9.77
2018-08-17T01:19:03.095Z,11.73
2018-08-17T01:21:31.131Z,9.33
2018-08-17T01:23:59.211Z,13.53
2018-08-17T01:26:27.363Z,13.53
2018-08-17T01:28:55.446Z,13.17
2018-08-17T01:31:24.424Z,16.13
2018-08-17T01:33:52.541Z,12.30
2018-08-17T01:36:20.688Z,13.30
2018-08-17T01:38:48.952Z,11.57
2018-08-17T01:41:17.032Z,11.80
2018-08-17T01:43:45.115Z,11.67
2018-08-17T01:46:13.266Z,10.60
2018-08-17T01:48:41.333Z,10.70
2018-08-17T01:51:09.392Z,14.97
2018-08-17T01:53:37.464Z,12.77
2018-08-17T01:56:05.503Z,11.97
2018-08-17T01:58:33.548Z,13.93
2018-08-17T02:01:01.687Z,16.50
2018-08-17T02:03:29.783Z,13.93
2018-08-17T02:05:57.827Z,15.10
2018-08-17T02:08:25.878Z,16.80
2018-08-17T02:10:53.951Z,14.30
2018-08-17T02:13:22.154Z,16.27
2018-08-17T02:15:50.199Z,13.77
2018-08-17T02:18:18.240Z,12.63
2018-08-17T02:20:46.275Z,15.10
2018-08-17T02:23:14.344Z,12.30
2018-08-17T02:25:42.492Z,13.53
2018-08-17T02:28:10.567Z,14.80
2018-08-17T02:30:38.750Z,15.93
2018-08-17T02:33:06.819Z,14.37
2018-08-17T02:35:35.919Z,13.47
2018-08-17T02:38:04.125Z,15.53
2018-08-17T02:40:32.161Z,14.27
2018-08-17T02:43:00.324Z,12.23
2018-08-17T02:45:28.395Z,13.00
2018-08-17T02:47:56.572Z,12.27
2018-08-17T02:50:24.760Z,10.13
2018-08-17T02:52:52.907Z,10.43
2018-08-17T02:55:21.010Z,11.37
2018-08-17T02:57:49.079Z,9.33
2018-08-17T03:00:17.441Z,10.00
2018-08-17T03:02:45.622Z,14.10
2018-08-17T03:05:13.684Z,10.37
2018-08-17T03:07:41.779Z,11.47
2018-08-17T03:10:09.834Z,12.90
2018-08-17T03:12:37.887Z,13.67
2018-08-17T03:15:06.278Z,15.03
2018-08-17T03:17:34.411Z,13.20
2018-08-17T03:20:02.626Z,15.50
2018-08-17T03:22:30.695Z,12.60
2018-08-17T03:24:58.776Z,14.67
2018-08-17T03:27:26.867Z,16.33
2018-08-17T03:29:54.915Z,16.57
2018-08-17T03:32:23.032Z,15.17
2018-08-17T03:34:51.063Z,15.60
2018-08-17T03:37:19.324Z,13.43
2018-08-17T03:39:47.280Z,15.03
2018-08-17T03:42:15.311Z,16.93
2018-08-17T03:44:43.371Z,14.13
2018-08-17T03:47:11.431Z,12.37
2018-08-17T03:49:39.480Z,13.93
2018-08-17T03:52:07.559Z,14.63
2018-08-17T03:54:35.628Z,13.10
2018-08-17T03:57:03.799Z,13.40
2018-08-17T03:59:31.882Z,13.77
2018-08-17T04:01:59.968Z,17.50
2018-08-17T04:04:28.020Z,15.93
2018-08-17T04:06:56.087Z,16.07
2018-08-17T04:09:24.156Z,16.23
2018-08-17T04:11:52.250Z,14.43
2018-08-17T04:14:20.290Z,13.83
2018-08-17T04:16:48.351Z,16.50
2018-08-17T04:19:16.560Z,15.87
2018-08-17T04:21:44.656Z,13.30
2018-08-17T04:24:12.715Z,16.37
2018-08-17T04:26:40.759Z,15.43
2018-08-17T04:29:08.834Z,17.90
2018-08-17T04:31:36.915Z,13.97
2018-08-17T04:34:04.979Z,16.43
2018-08-17T04:36:33.040Z,14.50
2018-08-17T04:39:01.107Z,14.57
2018-08-17T04:41:29.211Z,14.00
2018-08-17T04:43:57.262Z,15.03
2018-08-17T04:46:25.335Z,16.67
2018-08-17T04:48:53.364Z,16.17
2018-08-17T04:51:21.463Z,14.23
2018-08-17T04:53:49.599Z,14.90
2018-08-17T04:56:17.628Z,18.07
2018-08-17T04:58:45.658Z,18.20
2018-08-17T05:01:13.678Z,19.30
2018-08-17T05:03:41.748Z,16.90
2018-08-17T05:06:09.811Z,20.40
2018-08-17T05:08:37.867Z,18.50
2018-08-17T05:11:05.935Z,21.10
2018-08-17T05:13:34.011Z,19.10
2018-08-17T05:16:02.031Z,17.00
2018-08-17T05:18:30.155Z,19.33
2018-08-17T05:20:58.193Z,18.40
2018-08-17T05:23:26.434Z,18.20
2018-08-17T05:25:54.487Z,18.83
2018-08-17T05:28:22.662Z,19.00
2018-08-17T05:30:50.679Z,19.13
2018-08-17T05:33:18.736Z,19.87
2018-08-17T05:35:46.798Z,21.63
2018-08-17T05:38:14.824Z,18.57
2018-08-17T05:40:42.887Z,18.70
2018-08-17T05:43:10.925Z,20.33
2018-08-17T05:45:38.943Z,22.47
2018-08-17T05:48:06.986Z,17.07
2018-08-17T05:50:35.019Z,17.83
2018-08-17T05:53:03.651Z,17.20
2018-08-17T05:55:31.804Z,18.20
2018-08-17T05:57:59.854Z,17.17
2018-08-17T06:00:27.869Z,16.40
2018-08-17T06:02:56.011Z,20.63
2018-08-17T06:05:24.119Z,19.10
2018-08-17T06:07:52.193Z,19.00
2018-08-17T06:10:20.246Z,18.60
2018-08-17T06:12:48.315Z,23.07
2018-08-17T06:15:16.391Z,20.60
2018-08-17T06:17:44.467Z,23.13
2018-08-17T06:20:12.577Z,21.93
2018-08-17T06:22:40.834Z,22.53
2018-08-17T06:25:11.042Z,25.13
2018-08-17T06:27:40.070Z,21.50
2018-08-17T06:30:09.247Z,16.47
2018-08-17T06:32:37.624Z,14.33
2018-08-17T06:35:06.503Z,13.80
2018-08-17T06:37:34.523Z,14.77
2018-08-17T06:40:02.858Z,16.03
2018-08-17T06:42:31.306Z,13.87
2018-08-17T06:44:59.379Z,16.27
2018-08-17T06:47:27.451Z,15.73
2018-08-17T06:49:55.475Z,12.33
2018-08-17T06:52:23.601Z,12.63
2018-08-17T06:54:51.630Z,14.90
2018-08-17T06:57:19.853Z,12.40
2018-08-17T06:59:47.818Z,11.30
2018-08-17T07:02:16.783Z,12.80
2018-08-17T07:04:44.811Z,11.73
2018-08-17T07:07:12.891Z,10.17
2018-08-17T07:09:40.923Z,11.63
2018-08-17T07:12:08.970Z,11.43
2018-08-17T07:14:37.039Z,9.27
2018-08-17T07:17:05.115Z,10.30
2018-08-17T07:19:33.209Z,8.80
2018-08-17T07:22:01.259Z,9.80
2018-08-17T07:24:29.754Z,9.07
2018-08-17T07:26:57.810Z,8.63
2018-08-17T07:29:25.881Z,7.37
2018-08-17T07:31:53.926Z,6.37
2018-08-17T07:34:22.228Z,6.63
2018-08-17T07:36:50.304Z,5.30
2018-08-17T07:39:18.383Z,5.47
2018-08-17T07:41:46.453Z,4.37
2018-08-17T07:44:14.535Z,4.50
2018-08-17T07:46:42.574Z,3.53
2018-08-17T07:49:10.612Z,4.60
2018-08-17T07:51:38.769Z,4.90
2018-08-17T07:54:06.838Z,3.97
2018-08-17T07:56:35.391Z,4.50
2018-08-17T07:59:03.539Z,4.00
2018-08-17T08:01:31.527Z,4.23
2018-08-17T08:03:59.598Z,4.27
2018-08-17T08:06:27.679Z,3.50
2018-08-17T08:08:55.749Z,2.97
2018-08-17T08:11:23.793Z,3.47
2018-08-17T08:13:51.859Z,3.10
2018-08-17T08:16:19.904Z,3.00
2018-08-17T08:18:47.953Z,3.17
2018-08-17T08:21:16.030Z,3.00
2018-08-17T08:23:44.204Z,2.50
2018-08-17T08:26:12.273Z,3.20
2018-08-17T08:28:40.302Z,2.93
2018-08-17T08:31:08.645Z,3.03
2018-08-17T08:33:36.786Z,3.27
2018-08-17T08:36:04.828Z,3.17
2018-08-17T08:38:32.886Z,2.63
2018-08-17T08:41:00.954Z,3.47
2018-08-17T08:43:28.990Z,2.80
2018-08-17T08:45:57.216Z,3.30
2018-08-17T08:48:25.283Z,2.47
2018-08-17T08:50:53.338Z,2.70
2018-08-17T08:53:21.441Z,2.63
2018-08-17T08:55:49.525Z,2.50
2018-08-17T08:58:17.711Z,2.40
2018-08-17T09:00:45.767Z,2.30
2018-08-17T09:03:13.835Z,2.50
2018-08-17T09:05:41.958Z,2.37
2018-08-17T09:08:10.049Z,2.33
2018-08-17T09:10:38.185Z,2.37
2018-08-17T09:13:06.252Z,1.87
2018-08-17T09:15:34.463Z,2.17
2018-08-17T09:18:02.632Z,2.50
2018-08-17T09:20:30.695Z,2.43
2018-08-17T09:22:58.751Z,2.50
2018-08-17T09:25:26.960Z,2.10
2018-08-17T09:27:55.051Z,2.90
2018-08-17T09:30:23.085Z,2.17
2018-08-17T09:32:51.157Z,2.20
2018-08-17T09:35:19.300Z,2.30
2018-08-17T09:37:47.360Z,2.17
2018-08-17T09:40:15.439Z,2.57
2018-08-17T09:42:43.491Z,1.87
2018-08-17T09:45:12.754Z,1.87
2018-08-17T09:47:40.790Z,2.33
2018-08-17T09:50:10.532Z,1.80
2018-08-17T09:52:39.020Z,2.43
2018-08-17T09:55:07.069Z,2.00
2018-08-17T09:57:35.272Z,2.37
2018-08-17T10:00:04.158Z,1.80
2018-08-17T10:02:37.947Z,2.10
2018-08-17T10:05:11.466Z,1.70
2018-08-17T10:07:44.975Z,1.43
2018-08-17T10:10:17.908Z,1.67
2018-08-17T10:12:46.874Z,1.70
2018-08-17T10:15:15.184Z,1.50
2018-08-17T10:17:43.255Z,1.90
2018-08-17T10:20:12.167Z,1.67
2018-08-17T10:22:40.327Z,1.50
2018-08-17T10:25:15.399Z,1.50
2018-08-17T10:27:43.991Z,1.40
2018-08-17T10:30:12.166Z,1.57
2018-08-17T10:32:48.429Z,2.10
2018-08-17T10:35:21.790Z,2.10
2018-08-17T10:37:49.836Z,1.83
2018-08-17T10:40:17.967Z,1.37
2018-08-17T10:42:46.257Z,1.30
2018-08-17T10:45:14.302Z,1.50
2018-08-17T10:47:42.337Z,1.73
2018-08-17T10:50:15.865Z,2.03
2018-08-17T10:52:43.999Z,1.20
2018-08-17T10:55:12.641Z,1.33
2018-08-17T10:57:40.676Z,1.73
2018-08-17T11:00:11.676Z,1.53
2018-08-17T11:02:39.942Z,1.50
2018-08-17T11:05:08.004Z,1.70
2018-08-17T11:07:37.965Z,1.30
2018-08-17T11:10:07.624Z,1.53
2018-08-17T11:12:35.703Z,1.70
2018-08-17T11:15:03.768Z,1.40
2018-08-17T11:17:31.826Z,1.30
2018-08-17T11:19:59.848Z,1.70
2018-08-17T11:22:27.878Z,1.90
2018-08-17T11:24:55.932Z,1.30
2018-08-17T11:27:23.958Z,1.27
2018-08-17T11:29:52.122Z,1.50
2018-08-17T11:32:20.259Z,1.27
2018-08-17T11:34:49.912Z,1.30
2018-08-17T11:37:18.707Z,2.17
2018-08-17T11:39:51.130Z,1.83
2018-08-17T11:42:19.203Z,1.20
2018-08-17T11:44:47.267Z,1.40
2018-08-17T11:47:15.334Z,1.37
2018-08-17T11:49:43.519Z,1.20
2018-08-17T11:52:11.592Z,1.70
2018-08-17T11:54:39.719Z,1.20
2018-08-17T11:57:07.765Z,1.60
2018-08-17T11:59:37.787Z,1.20
2018-08-17T12:02:05.831Z,1.10
2018-08-17T12:04:34.206Z,1.60
2018-08-17T12:07:02.271Z,1.23
2018-08-17T12:09:30.355Z,1.57
2018-08-17T12:11:58.432Z,1.20
2018-08-17T12:14:26.523Z,1.70
2018-08-17T12:16:55.324Z,1.40
2018-08-17T12:19:23.468Z,1.20
2018-08-17T12:21:51.681Z,1.40
2018-08-17T12:24:19.963Z,1.47
2018-08-17T12:26:53.681Z,1.20
2018-08-17T12:29:22.047Z,1.17
2018-08-17T12:31:50.136Z,1.20
2018-08-17T12:34:18.494Z,0.80
2018-08-17T12:36:46.550Z,1.20
2018-08-17T12:39:14.589Z,1.10
2018-08-17T12:41:42.626Z,1.30
2018-08-17T12:44:10.735Z,1.20
2018-08-17T12:46:38.806Z,1.20
2018-08-17T12:49:06.830Z,1.50
2018-08-17T12:51:34.983Z,1.00
2018-08-17T12:54:03.048Z,1.40
2018-08-17T12:56:31.116Z,1.20
2018-08-17T12:58:59.141Z,0.90
2018-08-17T13:01:27.170Z,1.20
2018-08-17T13:03:55.238Z,1.13
2018-08-17T13:06:23.427Z,1.10
2018-08-17T13:08:51.528Z,1.03
2018-08-17T13:11:19.603Z,1.10
2018-08-17T13:13:47.958Z,1.30
2018-08-17T13:16:15.992Z,0.90
2018-08-17T13:18:44.037Z,0.90
2018-08-17T13:21:12.107Z,1.00
2018-08-17T13:23:40.260Z,1.10
2018-08-17T13:26:08.283Z,1.23
2018-08-17T13:28:36.341Z,1.17
2018-08-17T13:31:04.379Z,0.93
2018-08-17T13:33:32.460Z,1.20
2018-08-17T13:36:00.538Z,1.03
2018-08-17T13:38:28.615Z,0.90
2018-08-17T13:40:56.688Z,0.97
2018-08-17T13:43:24.775Z,0.90
2018-08-17T13:45:52.924Z,0.70
2018-08-17T13:48:21.111Z,1.20
2018-08-17T13:50:49.296Z,1.10
2018-08-17T13:53:17.366Z,0.93
2018-08-17T13:55:45.410Z,0.90
2018-08-17T13:58:13.440Z,1.50
2018-08-17T14:00:41.479Z,1.23
2018-08-17T14:03:09.584Z,1.20
2018-08-17T14:05:37.616Z,0.93
2018-08-17T14:08:05.896Z,1.17
2018-08-17T14:10:34.060Z,1.00
2018-08-17T14:13:02.130Z,1.30
2018-08-17T14:15:30.227Z,1.30
2018-08-17T14:17:58.275Z,1.13
2018-08-17T14:20:26.340Z,1.10
2018-08-17T14:22:54.433Z,1.07
2018-08-17T14:25:22.588Z,1.20
2018-08-17T14:27:50.673Z,1.40
2018-08-17T14:30:18.752Z,1.00
2018-08-17T14:32:46.790Z,1.30
2018-08-17T14:35:15.255Z,1.00
2018-08-17T14:37:43.450Z,0.97
2018-08-17T14:40:11.678Z,1.00
2018-08-17T14:42:40.220Z,1.13
2018-08-17T14:45:08.807Z,1.30
2018-08-17T14:47:37.270Z,1.07
2018-08-17T14:50:06.738Z,1.17
2018-08-17T14:52:34.875Z,0.90
2018-08-17T14:55:02.955Z,1.20
2018-08-17T14:57:31.007Z,1.40
2018-08-17T14:59:59.171Z,1.30
2018-08-17T15:02:27.195Z,1.33
2018-08-17T15:04:55.240Z,1.27
2018-08-17T15:07:23.389Z,1.07
2018-08-17T15:09:51.585Z,0.97
2018-08-17T15:12:19.628Z,1.57
2018-08-17T15:14:47.690Z,1.30
2018-08-17T15:17:15.771Z,1.17
2018-08-17T15:19:44.020Z,1.40
2018-08-17T15:22:12.144Z,0.90
2018-08-17T15:24:40.286Z,1.50
2018-08-17T15:27:08.344Z,1.30
2018-08-17T15:29:36.383Z,1.73
2018-08-17T15:32:05.227Z,1.90
2018-08-17T15:34:33.487Z,1.80
2018-08-17T15:37:01.579Z,1.53
2018-08-17T15:39:29.719Z,1.40
2018-08-17T15:41:57.758Z,1.30
2018-08-17T15:44:26.737Z,2.37
2018-08-17T15:46:56.006Z,2.30
2018-08-17T15:49:29.587Z,1.73
2018-08-17T15:51:57.713Z,1.50
2018-08-17T15:54:25.803Z,1.40
2018-08-17T15:56:53.865Z,1.67
2018-08-17T15:59:21.904Z,1.03
2018-08-17T16:01:49.940Z,1.27
2018-08-17T16:04:17.991Z,1.27
2018-08-17T16:06:46.053Z,1.20
2018-08-17T16:09:14.392Z,1.47
2018-08-17T16:11:42.569Z,1.03
2018-08-17T16:14:10.654Z,1.37
2018-08-17T16:16:38.745Z,0.90
2018-08-17T16:19:06.977Z,0.73
2018-08-17T16:21:35.352Z,1.20
2018-08-17T16:24:04.872Z,1.07
2018-08-17T16:26:33.080Z,1.30
2018-08-17T16:29:01.947Z,0.97
2018-08-17T16:31:34.436Z,1.30
2018-08-17T16:34:02.599Z,1.40
2018-08-17T16:36:31.336Z,1.00
2018-08-17T16:38:59.446Z,0.90
2018-08-17T16:41:27.519Z,1.17
2018-08-17T16:43:55.693Z,1.00
2018-08-17T16:46:23.838Z,1.00
2018-08-17T16:48:51.871Z,1.20
2018-08-17T16:51:20.060Z,1.27
2018-08-17T16:53:48.205Z,1.20
2018-08-17T16:56:16.339Z,0.90
2018-08-17T16:58:44.407Z,1.30
2018-08-17T17:01:12.525Z,1.20
2018-08-17T17:03:40.564Z,0.90
2018-08-17T17:06:08.687Z,0.80
2018-08-17T17:08:36.726Z,0.90
2018-08-17T17:11:04.835Z,0.90
2018-08-17T17:13:37.572Z,1.30
2018-08-17T17:16:05.610Z,1.07
2018-08-17T17:18:33.716Z,1.20
2018-08-17T17:21:01.809Z,1.10
2018-08-17T17:23:29.872Z,1.10
2018-08-17T17:25:57.919Z,1.23
2018-08-17T17:28:29.232Z,1.00
2018-08-17T17:30:57.355Z,1.03
2018-08-17T17:33:25.443Z,0.90
2018-08-17T17:35:53.516Z,1.47
2018-08-17T17:38:21.585Z,1.10
2018-08-17T17:40:50.521Z,0.90
2018-08-17T17:43:18.611Z,1.10
2018-08-17T17:45:46.681Z,1.20
2018-08-17T17:48:14.835Z,1.50
2018-08-17T17:50:43.312Z,1.47
2018-08-17T17:53:11.351Z,0.70
2018-08-17T17:55:45.652Z,1.27
2018-08-17T17:58:14.168Z,1.00
2018-08-17T18:00:47.026Z,1.00
2018-08-17T18:03:15.547Z,1.07
2018-08-17T18:05:43.639Z,1.10
2018-08-17T18:08:17.837Z,1.23
2018-08-17T18:10:47.088Z,0.87
2018-08-17T18:13:15.715Z,1.27
2018-08-17T18:15:44.181Z,1.10
2018-08-17T18:18:12.389Z,1.03
2018-08-17T18:20:41.037Z,1.13
2018-08-17T18:23:09.272Z,1.07
2018-08-17T18:25:37.324Z,1.30
2018-08-17T18:28:05.602Z,1.10
2018-08-17T18:30:33.707Z,1.07
2018-08-17T18:33:01.749Z,1.30
2018-08-17T18:35:29.824Z,1.53
2018-08-17T18:37:58.136Z,1.30
2018-08-17T18:40:26.412Z,1.43
2018-08-17T18:42:54.456Z,1.30
2018-08-17T18:45:22.731Z,1.30
2018-08-17T18:47:50.799Z,1.13
2018-08-17T18:50:18.863Z,1.40
2018-08-17T18:52:46.929Z,1.40
2018-08-17T18:55:15.152Z,1.60
2018-08-17T18:57:43.184Z,1.40
2018-08-17T19:00:12.772Z,1.40
2018-08-17T19:02:40.881Z,1.30
2018-08-17T19:05:09.434Z,1.30
2018-08-17T19:07:38.216Z,1.50
2018-08-17T19:10:06.992Z,1.43
2018-08-17T19:12:36.112Z,1.40
2018-08-17T19:15:09.757Z,1.67
2018-08-17T19:17:41.901Z,2.03
2018-08-17T19:20:12.420Z,1.40
2018-08-17T19:22:43.094Z,1.60
2018-08-17T19:25:12.740Z,1.50
2018-08-17T19:27:41.820Z,1.60
2018-08-17T19:30:24.589Z,1.70
2018-08-17T19:32:54.256Z,1.50
2018-08-17T19:35:22.632Z,1.40
2018-08-17T19:37:51.836Z,1.80
2018-08-17T19:40:20.857Z,1.67
2018-08-17T19:42:49.513Z,1.83
2018-08-17T19:45:18.714Z,1.70
2018-08-17T19:47:47.085Z,1.93
2018-08-17T19:50:15.767Z,1.93
2018-08-17T19:52:44.830Z,2.10
2018-08-17T19:55:13.144Z,2.20
2018-08-17T19:57:41.495Z,2.17
2018-08-17T20:00:11.129Z,2.13
2018-08-17T20:02:40.138Z,2.67
2018-08-17T20:05:08.827Z,2.00
2018-08-17T20:07:37.364Z,2.40
2018-08-17T20:10:05.605Z,1.87
2018-08-17T20:12:33.765Z,2.00
2018-08-17T20:15:01.874Z,2.20
2018-08-17T20:17:29.927Z,2.60
2018-08-17T20:19:57.962Z,1.93
2018-08-17T20:22:26.035Z,2.10
2018-08-17T20:24:54.109Z,2.20
2018-08-17T20:27:22.331Z,2.00
2018-08-17T20:29:50.351Z,2.37
2018-08-17T20:32:18.395Z,2.20
2018-08-17T20:34:47.971Z,2.50
2018-08-17T20:37:16.804Z,2.00
2018-08-17T20:39:45.913Z,2.40
2018-08-17T20:42:13.982Z,2.57
2018-08-17T20:44:41.994Z,2.50
2018-08-17T20:47:10.847Z,2.50
2018-08-17T20:49:38.886Z,2.83
2018-08-17T20:52:06.944Z,2.43
2018-08-17T20:54:34.997Z,2.70
2018-08-17T20:57:03.027Z,2.93
2018-08-17T20:59:31.087Z,2.80
2018-08-17T21:01:59.414Z,2.60
2018-08-17T21:04:27.546Z,3.07
2018-08-17T21:06:55.570Z,2.30
2018-08-17T21:09:23.704Z,2.70
2018-08-17T21:11:51.731Z,3.00
2018-08-17T21:14:19.758Z,3.00
2018-08-17T21:16:47.915Z,3.03
2018-08-17T21:19:15.974Z,2.93
2018-08-17T21:21:44.082Z,2.73
2018-08-17T21:24:12.234Z,2.77
2018-08-17T21:26:40.294Z,3.20
2018-08-17T21:29:08.428Z,2.80
2018-08-17T21:31:36.432Z,3.53
2018-08-17T21:34:04.474Z,3.50
2018-08-17T21:36:32.604Z,3.23
2018-08-17T21:39:10.143Z,3.70
2018-08-17T21:41:39.387Z,3.73
2018-08-17T21:44:08.675Z,3.77
2018-08-17T21:46:36.763Z,3.93
2018-08-17T21:49:04.794Z,3.67
2018-08-17T21:51:34.232Z,4.23
2018-08-17T21:54:03.236Z,3.73
2018-08-17T21:56:31.259Z,3.77
2018-08-17T21:58:59.266Z,4.73
2018-08-17T22:01:27.347Z,4.30
2018-08-17T22:03:55.403Z,4.87
2018-08-17T22:06:23.494Z,3.57
2018-08-17T22:08:51.553Z,3.67
2018-08-17T22:11:28.647Z,4.30
2018-08-17T22:13:56.754Z,3.90
2018-08-17T22:16:24.803Z,3.60
2018-08-17T22:18:52.893Z,3.93
2018-08-17T22:21:21.008Z,3.93
2018-08-17T22:23:49.041Z,3.87
2018-08-17T22:26:17.093Z,4.77
2018-08-17T22:28:45.151Z,4.10
2018-08-17T22:31:13.207Z,3.60
2018-08-17T22:33:41.711Z,3.57
2018-08-17T22:36:16.088Z,4.90
2018-08-17T22:38:46.120Z,4.13
2018-08-17T22:41:14.809Z,4.17
2018-08-17T22:43:42.882Z,3.90
2018-08-17T22:46:10.943Z,3.93
2018-08-17T22:48:39.277Z,3.97
2018-08-17T22:51:07.316Z,4.00
2018-08-17T22:53:35.373Z,3.90
2018-08-17T22:56:03.397Z,4.17
2018-08-17T22:58:36.939Z,3.83
2018-08-17T23:01:04.971Z,3.70
2018-08-17T23:03:34.006Z,4.00
2018-08-17T23:06:02.041Z,4.33
2018-08-17T23:08:30.076Z,4.10
2018-08-17T23:10:58.111Z,3.67
2018-08-17T23:13:26.174Z,4.00
2018-08-17T23:15:54.303Z,4.47
2018-08-17T23:18:22.330Z,3.87
2018-08-17T23:20:50.352Z,3.60
2018-08-17T23:23:18.490Z,4.67
2018-08-17T23:25:46.562Z,4.87
2018-08-17T23:28:14.574Z,4.10
2018-08-17T23:30:42.599Z,4.30
2018-08-17T23:33:10.678Z,4.57
2018-08-17T23:35:38.730Z,5.13
2018-08-17T23:38:06.782Z,4.93
2018-08-17T23:40:34.866Z,4.87
2018-08-17T23:43:02.882Z,4.63
2018-08-17T23:45:30.894Z,4.70
2018-08-17T23:47:58.987Z,5.33
2018-08-17T23:50:27.067Z,4.90
2018-08-17T23:52:55.135Z,5.83
2018-08-17T23:55:23.163Z,5.23
2018-08-17T23:57:51.183Z,5.77
